Time;durP1;ratioP1;P1;durP2;ratioP2;P2;SDS_P1;SDS_P2;PMS_P1;PMS_P2;Temp;Humidity;BMP_temperature;BMP_pressure;BME280_temperature;BME280_humidity;BME280_pressure;Samples;Min_cycle;Max_cycle;Signal;HPM_P1;HPM_P2
2022/06/26 19:40:17;;;;;;;1.90;1.80;;;22.80;48.30;;;;;;4898579;29;20500;-57
2022/06/26 19:42:43;;;;;;;1.50;1.40;;;22.80;48.30;;;;;;4906941;29;20505;-57
2022/06/26 19:45:10;;;;;;;1.53;1.43;;;22.80;48.50;;;;;;4902635;29;20875;-57
2022/06/26 19:47:36;;;;;;;1.60;1.50;;;22.80;48.30;;;;;;4904951;29;20458;-60
2022/06/26 19:52:51;;;;;;;1.67;1.50;;;22.80;48.30;;;;;;4911218;29;20668;-57
2022/06/26 19:55:18;;;;;;;1.73;1.63;;;22.80;48.30;;;;;;4909544;29;20429;-57
2022/06/26 19:57:45;;;;;;;1.60;1.50;;;22.80;48.30;;;;;;4911635;29;20457;-57
2022/06/26 20:00:14;;;;;;;1.80;1.70;;;22.80;48.30;;;;;;4909579;29;21248;-58
2022/06/26 20:02:40;;;;;;;1.73;1.63;;;22.80;48.20;;;;;;4912856;29;21915;-58
2022/06/26 20:05:08;;;;;;;1.80;1.70;;;22.80;48.20;;;;;;4910623;29;20521;-57
2022/06/26 20:07:35;;;;;;;1.43;1.33;;;22.80;48.20;;;;;;4910607;29;20187;-58
2022/06/26 20:10:01;;;;;;;3.17;1.50;;;22.80;48.20;;;;;;4914421;29;20513;-59
2022/06/26 20:12:26;;;;;;;1.67;1.57;;;22.80;48.20;;;;;;4908730;29;20920;-58
2022/06/26 20:14:52;;;;;;;1.60;1.50;;;22.80;48.10;;;;;;4909804;29;20430;-57
2022/06/26 20:17:18;;;;;;;1.50;1.40;;;22.80;48.10;;;;;;4907700;29;20191;-57
2022/06/26 20:19:43;;;;;;;1.50;1.40;;;22.80;48.20;;;;;;4909018;29;20192;-59
2022/06/26 20:22:09;;;;;;;1.63;1.53;;;22.80;48.10;;;;;;4907219;29;20680;-58
2022/06/26 20:24:35;;;;;;;1.87;1.77;;;22.80;48.20;;;;;;4911353;29;20196;-58
2022/06/26 20:27:02;;;;;;;1.40;1.30;;;22.80;48.20;;;;;;4914594;29;20226;-57
2022/06/26 20:29:28;;;;;;;1.73;1.60;;;22.80;48.10;;;;;;4903895;29;21015;-57
2022/06/26 20:31:55;;;;;;;1.60;1.50;;;22.80;48.20;;;;;;4911814;29;20441;-57
2022/06/26 20:34:22;;;;;;;1.40;1.30;;;22.80;48.10;;;;;;4908077;29;21024;-58
2022/06/26 20:36:48;;;;;;;1.53;1.43;;;22.80;48.10;;;;;;4910117;29;20461;-57
2022/06/26 20:39:14;;;;;;;1.60;1.50;;;22.80;48.10;;;;;;4910279;29;20432;-58
2022/06/26 20:41:40;;;;;;;1.80;1.70;;;22.80;48.10;;;;;;4908221;29;20486;-57
2022/06/26 20:44:06;;;;;;;2.10;1.90;;;22.80;48.10;;;;;;4908777;29;20196;-58
2022/06/26 20:46:31;;;;;;;1.60;1.50;;;22.80;48.80;;;;;;4911116;29;20435;-58
2022/06/26 20:48:57;;;;;;;1.83;1.73;;;22.80;48.10;;;;;;4906794;29;20195;-57
2022/06/26 20:51:23;;;;;;;1.80;1.70;;;22.80;48.00;;;;;;4907273;29;20203;-58
2022/06/26 20:53:49;;;;;;;1.50;1.40;;;22.80;48.00;;;;;;4908572;29;20188;-58
2022/06/26 20:56:16;;;;;;;1.37;1.27;;;22.80;48.00;;;;;;4907327;29;20431;-57
2022/06/26 20:58:44;;;;;;;1.60;1.50;;;22.80;48.00;;;;;;4913017;29;20430;-57
2022/06/26 21:01:09;;;;;;;1.60;1.50;;;22.80;48.00;;;;;;4904430;29;21022;-57
2022/06/26 21:03:35;;;;;;;1.70;1.60;;;22.80;48.00;;;;;;4907683;29;20441;-58
2022/06/26 21:06:02;;;;;;;1.60;1.50;;;22.80;48.00;;;;;;4908164;29;20216;-57
2022/06/26 21:08:28;;;;;;;1.60;1.50;;;22.80;48.00;;;;;;4910941;29;20195;-57
2022/06/26 21:10:53;;;;;;;1.60;1.50;;;22.80;47.90;;;;;;4911324;29;20840;-57
2022/06/26 21:13:19;;;;;;;1.27;1.17;;;22.80;47.90;;;;;;4917063;29;20183;-57
2022/06/26 21:15:45;;;;;;;1.60;1.50;;;22.80;48.00;;;;;;4904758;29;20549;-57
2022/06/26 21:18:12;;;;;;;1.50;1.40;;;22.80;47.90;;;;;;4909142;29;20438;-60
2022/06/26 21:20:38;;;;;;;1.60;1.50;;;22.80;47.90;;;;;;4906227;29;20220;-57
2022/06/26 21:23:03;;;;;;;1.57;1.47;;;22.80;47.90;;;;;;4906410;29;20434;-57
2022/06/26 21:25:29;;;;;;;1.60;1.50;;;22.80;48.00;;;;;;4907623;29;20190;-58
2022/06/26 21:27:55;;;;;;;1.53;1.43;;;22.80;47.90;;;;;;4910784;29;20648;-57
2022/06/26 21:30:20;;;;;;;1.50;1.40;;;22.80;47.90;;;;;;4913442;29;20267;-57
2022/06/26 21:32:50;;;;;;;1.77;1.67;;;22.80;47.90;;;;;;4907846;29;20191;-57
2022/06/26 21:35:17;;;;;;;1.90;1.80;;;22.80;47.90;;;;;;4908984;29;20254;-59
2022/06/26 21:37:43;;;;;;;1.60;1.50;;;22.80;47.90;;;;;;4905157;29;20446;-57
2022/06/26 21:40:10;;;;;;;1.50;1.40;;;22.80;47.90;;;;;;4907672;29;20488;-58
2022/06/26 21:42:36;;;;;;;1.60;1.50;;;22.80;47.90;;;;;;4910711;29;20492;-58
2022/06/26 21:45:04;;;;;;;1.50;1.40;;;22.80;47.90;;;;;;4905208;29;20442;-57
2022/06/26 21:47:30;;;;;;;1.60;1.50;;;22.80;47.90;;;;;;4904867;29;20250;-58
2022/06/26 21:50:08;;;;;;;1.53;1.43;;;22.80;47.90;;;;;;4908221;29;20529;-58
2022/06/26 21:52:38;;;;;;;1.87;1.77;;;22.80;47.80;;;;;;4905566;29;20494;-57
2022/06/26 21:55:05;;;;;;;1.57;1.47;;;22.80;47.80;;;;;;4906248;29;20431;-58
2022/06/26 21:57:31;;;;;;;1.60;1.50;;;22.80;47.90;;;;;;4905433;29;20466;-58
2022/06/26 21:59:57;;;;;;;1.60;1.50;;;22.80;47.90;;;;;;4904269;29;20443;-57
2022/06/26 22:02:22;;;;;;;1.70;1.60;;;22.80;47.80;;;;;;4908635;29;20239;-57
2022/06/26 22:04:48;;;;;;;1.40;1.30;;;22.80;47.90;;;;;;4908489;29;20266;-58
2022/06/26 22:07:14;;;;;;;1.67;1.57;;;22.80;47.90;;;;;;4905843;29;20665;-57
2022/06/26 22:09:39;;;;;;;1.50;1.40;;;22.80;47.90;;;;;;4905469;29;20200;-57
2022/06/26 22:12:05;;;;;;;1.50;1.40;;;22.80;47.90;;;;;;4909251;29;20287;-57
2022/06/26 22:14:31;;;;;;;1.73;1.63;;;22.80;47.90;;;;;;4907228;29;20195;-57
2022/06/26 22:16:57;;;;;;;1.80;1.70;;;22.80;47.90;;;;;;4908457;29;20449;-58
2022/06/26 22:19:22;;;;;;;2.40;1.30;;;22.80;47.90;;;;;;4903053;29;20192;-57
2022/06/26 22:21:48;;;;;;;1.40;1.30;;;22.80;47.80;;;;;;4903603;29;20701;-58
2022/06/26 22:24:14;;;;;;;1.67;1.57;;;22.80;47.90;;;;;;4907066;29;20222;-57
2022/06/26 22:29:24;;;;;;;1.70;1.60;;;22.80;47.80;;;;;;4907302;29;20193;-57
2022/06/26 22:31:49;;;;;;;1.77;1.67;;;22.80;47.80;;;;;;4908668;29;20450;-57
2022/06/26 22:34:15;;;;;;;1.70;1.60;;;22.80;47.80;;;;;;4904653;29;20222;-58
2022/06/26 22:36:40;;;;;;;1.60;1.50;;;22.80;47.80;;;;;;4906485;29;20199;-57
2022/06/26 22:39:06;;;;;;;1.70;1.60;;;22.70;47.70;;;;;;4905657;29;20187;-58
2022/06/26 22:41:31;;;;;;;1.60;1.50;;;22.80;47.80;;;;;;4903964;29;20302;-57
2022/06/26 22:43:57;;;;;;;1.70;1.60;;;22.80;47.80;;;;;;4905733;29;20607;-57
2022/06/26 22:46:23;;;;;;;1.70;1.60;;;22.80;47.80;;;;;;4902614;29;20271;-56
2022/06/26 22:48:48;;;;;;;1.60;1.50;;;22.80;47.80;;;;;;4903471;29;20199;-58
2022/06/26 22:51:14;;;;;;;1.67;1.57;;;22.80;47.80;;;;;;4889486;29;20200;-57
2022/06/26 22:53:39;;;;;;;1.57;1.47;;;22.80;47.70;;;;;;4907905;29;20199;-57
2022/06/26 22:56:08;;;;;;;1.73;1.63;;;22.80;47.70;;;;;;4906102;29;20550;-58
2022/06/26 22:58:37;;;;;;;1.60;1.50;;;22.80;47.70;;;;;;4902625;29;20220;-57
2022/06/26 23:01:03;;;;;;;2.13;2.03;;;22.80;47.60;;;;;;4906483;29;20478;-57
2022/06/26 23:03:29;;;;;;;1.63;1.53;;;22.80;47.70;;;;;;4904227;29;20490;-57
2022/06/26 23:05:55;;;;;;;1.70;1.60;;;22.80;47.60;;;;;;4903442;29;20437;-58
2022/06/26 23:08:20;;;;;;;1.70;1.60;;;22.80;47.60;;;;;;4903107;29;20270;-57
2022/06/26 23:10:46;;;;;;;1.80;1.70;;;22.80;47.50;;;;;;4910684;29;20203;-58
2022/06/26 23:13:11;;;;;;;1.70;1.60;;;22.80;47.60;;;;;;4910787;29;20226;-58
2022/06/26 23:15:38;;;;;;;1.67;1.57;;;22.80;47.60;;;;;;4902810;29;20282;-58
2022/06/26 23:18:04;;;;;;;1.50;1.40;;;22.80;47.60;;;;;;4904257;29;20189;-58
2022/06/26 23:20:29;;;;;;;1.57;1.47;;;22.80;47.50;;;;;;4907634;29;21008;-56
2022/06/26 23:22:55;;;;;;;1.77;1.67;;;22.80;47.40;;;;;;4905124;29;20499;-56
2022/06/26 23:25:21;;;;;;;1.73;1.63;;;22.80;47.30;;;;;;4906841;29;20219;-59
2022/06/26 23:27:46;;;;;;;1.70;1.60;;;22.80;47.30;;;;;;4905110;29;20275;-57
2022/06/26 23:30:12;;;;;;;1.70;1.60;;;22.80;47.20;;;;;;4899989;29;20200;-57
2022/06/26 23:32:38;;;;;;;1.40;1.30;;;22.80;47.20;;;;;;4905795;29;20196;-56
2022/06/26 23:35:05;;;;;;;1.60;1.50;;;22.80;47.20;;;;;;4905130;29;20553;-58
2022/06/26 23:37:31;;;;;;;1.90;1.80;;;22.80;47.20;;;;;;4902386;29;20207;-57
2022/06/26 23:39:56;;;;;;;1.57;1.47;;;22.80;47.20;;;;;;4901249;29;20477;-57
2022/06/26 23:42:22;;;;;;;1.77;1.67;;;22.80;47.20;;;;;;4900698;29;20695;-58
2022/06/26 23:44:48;;;;;;;1.60;1.50;;;22.70;47.20;;;;;;4903304;29;20234;-56
2022/06/26 23:47:13;;;;;;;1.60;1.50;;;22.80;47.20;;;;;;4905940;29;20203;-57
2022/06/26 23:49:39;;;;;;;1.90;1.80;;;22.70;47.10;;;;;;4899558;29;20654;-58
2022/06/26 23:52:05;;;;;;;1.63;1.53;;;22.70;47.10;;;;;;4906428;29;20199;-57
2022/06/26 23:54:30;;;;;;;1.80;1.70;;;22.80;47.20;;;;;;4901741;29;20248;-58
2022/06/26 23:56:56;;;;;;;1.83;1.73;;;22.70;47.20;;;;;;4906773;29;20195;-58
2022/06/26 23:59:21;;;;;;;1.70;1.60;;;22.70;47.20;;;;;;4905789;29;20860;-57
